sensor_id;sensor_type;location;lat;lon;timestamp;temperature;humidity
23156;DHT22;11746;50.876;4.246;2023-04-24T00:00:21;9.30;99.90
23156;DHT22;11746;50.876;4.246;2023-04-24T00:02:46;9.30;99.90
23156;DHT22;11746;50.876;4.246;2023-04-24T00:05:16;9.30;99.90
23156;DHT22;11746;50.876;4.246;2023-04-24T00:07:44;9.30;99.90
23156;DHT22;11746;50.876;4.246;2023-04-24T00:10:11;9.30;99.90
23156;DHT22;11746;50.876;4.246;2023-04-24T00:12:37;9.40;99.90
23156;DHT22;11746;50.876;4.246;2023-04-24T00:15:04;9.40;99.90
23156;DHT22;11746;50.876;4.246;2023-04-24T00:17:30;9.30;99.90
23156;DHT22;11746;50.876;4.246;2023-04-24T00:19:57;9.30;99.90
23156;DHT22;11746;50.876;4.246;2023-04-24T00:22:27;9.30;99.90
23156;DHT22;11746;50.876;4.246;2023-04-24T00:24:54;9.30;99.90
23156;DHT22;11746;50.876;4.246;2023-04-24T00:27:20;9.30;99.90
23156;DHT22;11746;50.876;4.246;2023-04-24T00:29:46;9.30;99.90
23156;DHT22;11746;50.876;4.246;2023-04-24T00:32:12;9.20;99.90
23156;DHT22;11746;50.876;4.246;2023-04-24T00:34:38;9.30;99.90
23156;DHT22;11746;50.876;4.246;2023-04-24T00:37:03;9.30;99.90
23156;DHT22;11746;50.876;4.246;2023-04-24T00:39:29;9.30;99.90
23156;DHT22;11746;50.876;4.246;2023-04-24T00:41:56;9.30;99.90
23156;DHT22;11746;50.876;4.246;2023-04-24T00:44:22;9.30;99.90
23156;DHT22;11746;50.876;4.246;2023-04-24T00:46:49;9.20;99.90
23156;DHT22;11746;50.876;4.246;2023-04-24T00:49:23;9.20;99.90
23156;DHT22;11746;50.876;4.246;2023-04-24T00:51:49;9.30;99.90
23156;DHT22;11746;50.876;4.246;2023-04-24T00:54:17;9.30;99.90
23156;DHT22;11746;50.876;4.246;2023-04-24T00:56:44;9.20;99.90
23156;DHT22;11746;50.876;4.246;2023-04-24T00:59:11;9.10;99.90
23156;DHT22;11746;50.876;4.246;2023-04-24T01:01:39;9.10;99.90
23156;DHT22;11746;50.876;4.246;2023-04-24T01:04:08;9.10;99.90
23156;DHT22;11746;50.876;4.246;2023-04-24T01:06:38;9.00;99.90
23156;DHT22;11746;50.876;4.246;2023-04-24T01:09:05;9.00;99.90
23156;DHT22;11746;50.876;4.246;2023-04-24T01:11:31;9.00;99.90
23156;DHT22;11746;50.876;4.246;2023-04-24T01:13:57;9.00;99.90
23156;DHT22;11746;50.876;4.246;2023-04-24T01:16:24;9.00;99.90
23156;DHT22;11746;50.876;4.246;2023-04-24T01:18:50;9.00;99.90
23156;DHT22;11746;50.876;4.246;2023-04-24T01:21:18;9.00;99.90
23156;DHT22;11746;50.876;4.246;2023-04-24T01:23:47;9.00;99.90
23156;DHT22;11746;50.876;4.246;2023-04-24T01:26:15;9.00;99.90
23156;DHT22;11746;50.876;4.246;2023-04-24T01:28:41;8.90;99.90
23156;DHT22;11746;50.876;4.246;2023-04-24T01:31:07;8.90;99.90
23156;DHT22;11746;50.876;4.246;2023-04-24T01:33:33;8.90;99.90
23156;DHT22;11746;50.876;4.246;2023-04-24T01:36:00;8.90;99.90
23156;DHT22;11746;50.876;4.246;2023-04-24T01:38:26;8.80;99.90
23156;DHT22;11746;50.876;4.246;2023-04-24T01:40:52;8.90;99.90
23156;DHT22;11746;50.876;4.246;2023-04-24T01:43:19;8.90;99.90
23156;DHT22;11746;50.876;4.246;2023-04-24T01:45:45;9.00;99.90
23156;DHT22;11746;50.876;4.246;2023-04-24T01:48:12;9.10;99.90
23156;DHT22;11746;50.876;4.246;2023-04-24T01:50:38;9.10;99.90
23156;DHT22;11746;50.876;4.246;2023-04-24T01:53:04;9.10;99.90
23156;DHT22;11746;50.876;4.246;2023-04-24T01:55:30;9.10;99.90
23156;DHT22;11746;50.876;4.246;2023-04-24T01:57:57;9.10;99.90
23156;DHT22;11746;50.876;4.246;2023-04-24T02:00:24;9.10;99.90
23156;DHT22;11746;50.876;4.246;2023-04-24T02:02:50;9.10;99.90
23156;DHT22;11746;50.876;4.246;2023-04-24T02:05:16;9.00;99.90
23156;DHT22;11746;50.876;4.246;2023-04-24T02:07:42;9.10;99.90
23156;DHT22;11746;50.876;4.246;2023-04-24T02:10:08;9.10;99.90
23156;DHT22;11746;50.876;4.246;2023-04-24T02:12:34;9.10;99.90
23156;DHT22;11746;50.876;4.246;2023-04-24T02:15:00;9.00;99.90
23156;DHT22;11746;50.876;4.246;2023-04-24T02:17:26;9.00;99.90
23156;DHT22;11746;50.876;4.246;2023-04-24T02:19:52;9.00;99.90
23156;DHT22;11746;50.876;4.246;2023-04-24T02:22:18;9.00;99.90
23156;DHT22;11746;50.876;4.246;2023-04-24T02:24:44;9.00;99.90
23156;DHT22;11746;50.876;4.246;2023-04-24T02:27:10;9.00;99.90
23156;DHT22;11746;50.876;4.246;2023-04-24T02:29:37;9.00;99.90
23156;DHT22;11746;50.876;4.246;2023-04-24T02:32:02;9.00;99.90
23156;DHT22;11746;50.876;4.246;2023-04-24T02:34:28;9.00;99.90
23156;DHT22;11746;50.876;4.246;2023-04-24T02:36:54;8.90;99.90
23156;DHT22;11746;50.876;4.246;2023-04-24T02:39:20;9.00;99.90
23156;DHT22;11746;50.876;4.246;2023-04-24T02:41:46;9.00;99.90
23156;DHT22;11746;50.876;4.246;2023-04-24T02:44:12;8.90;99.90
23156;DHT22;11746;50.876;4.246;2023-04-24T02:46:38;9.00;99.90
23156;DHT22;11746;50.876;4.246;2023-04-24T02:49:04;9.10;99.90
23156;DHT22;11746;50.876;4.246;2023-04-24T02:51:30;9.00;99.90
23156;DHT22;11746;50.876;4.246;2023-04-24T02:53:56;8.90;99.90
23156;DHT22;11746;50.876;4.246;2023-04-24T02:56:22;8.90;99.90
23156;DHT22;11746;50.876;4.246;2023-04-24T02:58:48;8.90;99.90
23156;DHT22;11746;50.876;4.246;2023-04-24T03:01:14;8.80;99.90
23156;DHT22;11746;50.876;4.246;2023-04-24T03:03:40;8.80;99.90
23156;DHT22;11746;50.876;4.246;2023-04-24T03:06:06;8.70;99.90
23156;DHT22;11746;50.876;4.246;2023-04-24T03:08:33;8.70;99.90
23156;DHT22;11746;50.876;4.246;2023-04-24T03:11:00;8.80;99.90
23156;DHT22;11746;50.876;4.246;2023-04-24T03:13:26;8.80;99.90
23156;DHT22;11746;50.876;4.246;2023-04-24T03:15:52;8.70;99.90
23156;DHT22;11746;50.876;4.246;2023-04-24T03:18:18;8.70;99.90
23156;DHT22;11746;50.876;4.246;2023-04-24T03:20:47;8.70;99.90
23156;DHT22;11746;50.876;4.246;2023-04-24T03:23:13;8.70;99.90
23156;DHT22;11746;50.876;4.246;2023-04-24T03:25:39;8.60;99.90
23156;DHT22;11746;50.876;4.246;2023-04-24T03:28:06;8.60;99.90
23156;DHT22;11746;50.876;4.246;2023-04-24T03:30:32;8.70;99.90
23156;DHT22;11746;50.876;4.246;2023-04-24T03:32:58;8.60;99.90
23156;DHT22;11746;50.876;4.246;2023-04-24T03:35:23;8.70;99.90
23156;DHT22;11746;50.876;4.246;2023-04-24T03:37:49;8.70;99.90
23156;DHT22;11746;50.876;4.246;2023-04-24T03:40:15;8.70;99.90
23156;DHT22;11746;50.876;4.246;2023-04-24T03:42:41;8.70;99.90
23156;DHT22;11746;50.876;4.246;2023-04-24T03:45:08;8.70;99.90
23156;DHT22;11746;50.876;4.246;2023-04-24T03:47:34;8.70;99.90
23156;DHT22;11746;50.876;4.246;2023-04-24T03:50:00;8.70;99.90
23156;DHT22;11746;50.876;4.246;2023-04-24T03:52:26;8.80;99.90
23156;DHT22;11746;50.876;4.246;2023-04-24T03:54:52;8.80;99.90
23156;DHT22;11746;50.876;4.246;2023-04-24T03:57:17;8.80;99.90
23156;DHT22;11746;50.876;4.246;2023-04-24T03:59:43;8.70;99.90
23156;DHT22;11746;50.876;4.246;2023-04-24T04:02:09;8.70;99.90
23156;DHT22;11746;50.876;4.246;2023-04-24T04:04:35;8.80;99.90
23156;DHT22;11746;50.876;4.246;2023-04-24T04:07:01;8.70;99.90
23156;DHT22;11746;50.876;4.246;2023-04-24T04:09:28;8.70;99.90
23156;DHT22;11746;50.876;4.246;2023-04-24T04:11:55;8.70;99.90
23156;DHT22;11746;50.876;4.246;2023-04-24T04:14:22;8.70;99.90
23156;DHT22;11746;50.876;4.246;2023-04-24T04:16:47;8.70;99.90
23156;DHT22;11746;50.876;4.246;2023-04-24T04:19:13;8.60;99.90
23156;DHT22;11746;50.876;4.246;2023-04-24T04:21:39;8.70;99.90
23156;DHT22;11746;50.876;4.246;2023-04-24T04:24:05;8.70;99.90
23156;DHT22;11746;50.876;4.246;2023-04-24T04:26:32;8.60;99.90
23156;DHT22;11746;50.876;4.246;2023-04-24T04:28:59;8.60;99.90
23156;DHT22;11746;50.876;4.246;2023-04-24T04:31:29;8.60;99.90
23156;DHT22;11746;50.876;4.246;2023-04-24T04:33:56;8.60;99.90
23156;DHT22;11746;50.876;4.246;2023-04-24T04:36:22;8.60;99.90
23156;DHT22;11746;50.876;4.246;2023-04-24T04:38:49;8.50;99.90
23156;DHT22;11746;50.876;4.246;2023-04-24T04:41:15;8.50;99.90
23156;DHT22;11746;50.876;4.246;2023-04-24T04:43:42;8.50;99.90
23156;DHT22;11746;50.876;4.246;2023-04-24T04:46:08;8.50;99.90
23156;DHT22;11746;50.876;4.246;2023-04-24T04:48:36;8.50;99.90
23156;DHT22;11746;50.876;4.246;2023-04-24T04:51:03;8.50;99.90
23156;DHT22;11746;50.876;4.246;2023-04-24T04:53:29;8.50;99.90
23156;DHT22;11746;50.876;4.246;2023-04-24T04:55:55;8.50;99.90
23156;DHT22;11746;50.876;4.246;2023-04-24T04:58:21;8.50;99.90
23156;DHT22;11746;50.876;4.246;2023-04-24T05:00:47;8.40;99.90
23156;DHT22;11746;50.876;4.246;2023-04-24T05:03:13;8.40;99.90
23156;DHT22;11746;50.876;4.246;2023-04-24T05:05:39;8.40;99.90
23156;DHT22;11746;50.876;4.246;2023-04-24T05:08:07;8.50;99.90
23156;DHT22;11746;50.876;4.246;2023-04-24T05:10:33;8.40;99.90
23156;DHT22;11746;50.876;4.246;2023-04-24T05:12:59;8.40;99.90
23156;DHT22;11746;50.876;4.246;2023-04-24T05:15:26;8.50;99.90
23156;DHT22;11746;50.876;4.246;2023-04-24T05:17:52;8.40;99.90
23156;DHT22;11746;50.876;4.246;2023-04-24T05:20:18;8.40;99.90
23156;DHT22;11746;50.876;4.246;2023-04-24T05:22:44;8.30;99.90
23156;DHT22;11746;50.876;4.246;2023-04-24T05:25:10;8.40;99.90
23156;DHT22;11746;50.876;4.246;2023-04-24T05:27:36;8.30;99.90
23156;DHT22;11746;50.876;4.246;2023-04-24T05:30:02;8.30;99.90
23156;DHT22;11746;50.876;4.246;2023-04-24T05:32:28;8.30;99.90
23156;DHT22;11746;50.876;4.246;2023-04-24T05:34:54;8.40;99.90
23156;DHT22;11746;50.876;4.246;2023-04-24T05:37:20;8.30;99.90
23156;DHT22;11746;50.876;4.246;2023-04-24T05:39:46;8.30;99.90
23156;DHT22;11746;50.876;4.246;2023-04-24T05:42:12;8.40;99.90
23156;DHT22;11746;50.876;4.246;2023-04-24T05:44:38;8.30;99.90
23156;DHT22;11746;50.876;4.246;2023-04-24T05:47:04;8.30;99.90
23156;DHT22;11746;50.876;4.246;2023-04-24T05:49:30;8.40;99.90
23156;DHT22;11746;50.876;4.246;2023-04-24T05:51:57;8.40;99.90
23156;DHT22;11746;50.876;4.246;2023-04-24T05:54:23;8.20;99.90
23156;DHT22;11746;50.876;4.246;2023-04-24T05:56:49;8.20;99.90
23156;DHT22;11746;50.876;4.246;2023-04-24T05:59:16;8.20;99.90
23156;DHT22;11746;50.876;4.246;2023-04-24T06:01:42;8.20;99.90
23156;DHT22;11746;50.876;4.246;2023-04-24T06:04:08;8.20;99.90
23156;DHT22;11746;50.876;4.246;2023-04-24T06:06:35;8.20;99.90
23156;DHT22;11746;50.876;4.246;2023-04-24T06:09:00;8.20;99.90
23156;DHT22;11746;50.876;4.246;2023-04-24T06:11:27;8.30;99.90
23156;DHT22;11746;50.876;4.246;2023-04-24T06:13:53;8.20;99.90
23156;DHT22;11746;50.876;4.246;2023-04-24T06:16:19;8.30;99.90
23156;DHT22;11746;50.876;4.246;2023-04-24T06:18:45;8.20;99.90
23156;DHT22;11746;50.876;4.246;2023-04-24T06:21:12;8.20;99.90
23156;DHT22;11746;50.876;4.246;2023-04-24T06:23:38;8.20;99.90
23156;DHT22;11746;50.876;4.246;2023-04-24T06:26:04;8.20;99.90
23156;DHT22;11746;50.876;4.246;2023-04-24T06:28:30;8.20;99.90
23156;DHT22;11746;50.876;4.246;2023-04-24T06:30:56;8.20;99.90
23156;DHT22;11746;50.876;4.246;2023-04-24T06:33:22;8.20;99.90
23156;DHT22;11746;50.876;4.246;2023-04-24T06:35:48;8.30;99.90
23156;DHT22;11746;50.876;4.246;2023-04-24T06:38:14;8.20;99.90
23156;DHT22;11746;50.876;4.246;2023-04-24T06:40:41;8.30;99.90
23156;DHT22;11746;50.876;4.246;2023-04-24T06:43:07;8.30;99.90
23156;DHT22;11746;50.876;4.246;2023-04-24T06:45:33;8.40;99.90
23156;DHT22;11746;50.876;4.246;2023-04-24T06:47:59;8.40;99.90
23156;DHT22;11746;50.876;4.246;2023-04-24T06:50:25;8.50;99.90
23156;DHT22;11746;50.876;4.246;2023-04-24T06:52:51;8.50;99.90
23156;DHT22;11746;50.876;4.246;2023-04-24T06:55:24;8.50;99.90
23156;DHT22;11746;50.876;4.246;2023-04-24T06:57:52;8.50;99.90
23156;DHT22;11746;50.876;4.246;2023-04-24T07:00:20;8.50;99.90
23156;DHT22;11746;50.876;4.246;2023-04-24T07:02:49;8.60;99.90
23156;DHT22;11746;50.876;4.246;2023-04-24T07:05:14;8.50;99.90
23156;DHT22;11746;50.876;4.246;2023-04-24T07:07:40;8.50;99.90
23156;DHT22;11746;50.876;4.246;2023-04-24T07:10:07;8.60;99.90
23156;DHT22;11746;50.876;4.246;2023-04-24T07:12:33;8.60;99.90
23156;DHT22;11746;50.876;4.246;2023-04-24T07:15:03;8.70;99.90
23156;DHT22;11746;50.876;4.246;2023-04-24T07:17:28;8.70;99.90
23156;DHT22;11746;50.876;4.246;2023-04-24T07:19:54;8.80;99.90
23156;DHT22;11746;50.876;4.246;2023-04-24T07:22:19;8.80;99.90
23156;DHT22;11746;50.876;4.246;2023-04-24T07:24:48;8.70;99.90
23156;DHT22;11746;50.876;4.246;2023-04-24T07:27:16;8.80;99.90
23156;DHT22;11746;50.876;4.246;2023-04-24T07:29:42;8.80;99.90
23156;DHT22;11746;50.876;4.246;2023-04-24T07:32:07;8.70;99.90
23156;DHT22;11746;50.876;4.246;2023-04-24T07:34:33;8.70;99.90
23156;DHT22;11746;50.876;4.246;2023-04-24T07:36:59;8.70;99.90
23156;DHT22;11746;50.876;4.246;2023-04-24T07:39:25;8.60;99.90
23156;DHT22;11746;50.876;4.246;2023-04-24T07:41:53;8.70;99.90
23156;DHT22;11746;50.876;4.246;2023-04-24T07:44:19;8.70;99.90
23156;DHT22;11746;50.876;4.246;2023-04-24T07:46:47;8.80;99.90
23156;DHT22;11746;50.876;4.246;2023-04-24T07:49:13;8.90;99.90
23156;DHT22;11746;50.876;4.246;2023-04-24T07:51:39;8.90;99.90
23156;DHT22;11746;50.876;4.246;2023-04-24T07:54:05;9.00;99.90
23156;DHT22;11746;50.876;4.246;2023-04-24T07:56:32;9.10;99.90
23156;DHT22;11746;50.876;4.246;2023-04-24T07:59:00;9.20;99.90
23156;DHT22;11746;50.876;4.246;2023-04-24T08:01:29;9.20;99.90
23156;DHT22;11746;50.876;4.246;2023-04-24T08:03:56;9.20;99.90
23156;DHT22;11746;50.876;4.246;2023-04-24T08:06:22;9.10;99.90
23156;DHT22;11746;50.876;4.246;2023-04-24T08:08:48;9.20;99.90
23156;DHT22;11746;50.876;4.246;2023-04-24T08:11:16;9.20;99.90
23156;DHT22;11746;50.876;4.246;2023-04-24T08:13:42;9.20;99.90
23156;DHT22;11746;50.876;4.246;2023-04-24T08:16:10;9.30;99.90
23156;DHT22;11746;50.876;4.246;2023-04-24T08:18:38;9.30;99.90
23156;DHT22;11746;50.876;4.246;2023-04-24T08:21:06;9.40;99.90
23156;DHT22;11746;50.876;4.246;2023-04-24T08:23:32;9.40;99.90
23156;DHT22;11746;50.876;4.246;2023-04-24T08:26:00;9.40;99.90
23156;DHT22;11746;50.876;4.246;2023-04-24T08:28:28;9.40;99.90
23156;DHT22;11746;50.876;4.246;2023-04-24T08:30:56;9.30;99.90
23156;DHT22;11746;50.876;4.246;2023-04-24T08:33:23;9.40;99.90
23156;DHT22;11746;50.876;4.246;2023-04-24T08:35:52;9.40;99.90
23156;DHT22;11746;50.876;4.246;2023-04-24T08:38:17;9.50;99.90
23156;DHT22;11746;50.876;4.246;2023-04-24T08:40:43;9.60;99.90
23156;DHT22;11746;50.876;4.246;2023-04-24T08:43:12;9.70;99.90
23156;DHT22;11746;50.876;4.246;2023-04-24T08:45:40;9.70;99.90
23156;DHT22;11746;50.876;4.246;2023-04-24T08:48:06;9.90;99.90
23156;DHT22;11746;50.876;4.246;2023-04-24T08:50:34;10.00;99.90
23156;DHT22;11746;50.876;4.246;2023-04-24T08:53:01;10.20;99.90
23156;DHT22;11746;50.876;4.246;2023-04-24T08:55:26;10.40;99.90
23156;DHT22;11746;50.876;4.246;2023-04-24T08:57:55;10.60;99.90
23156;DHT22;11746;50.876;4.246;2023-04-24T09:00:24;10.40;99.90
23156;DHT22;11746;50.876;4.246;2023-04-24T09:02:50;10.70;99.90
23156;DHT22;11746;50.876;4.246;2023-04-24T09:05:17;10.70;99.90
23156;DHT22;11746;50.876;4.246;2023-04-24T09:07:47;10.90;99.90
23156;DHT22;11746;50.876;4.246;2023-04-24T09:10:15;11.00;99.90
23156;DHT22;11746;50.876;4.246;2023-04-24T09:12:41;10.90;99.90
23156;DHT22;11746;50.876;4.246;2023-04-24T09:15:08;11.00;99.90
23156;DHT22;11746;50.876;4.246;2023-04-24T09:17:34;10.80;99.90
23156;DHT22;11746;50.876;4.246;2023-04-24T09:20:00;10.60;99.90
23156;DHT22;11746;50.876;4.246;2023-04-24T09:22:30;10.30;99.90
23156;DHT22;11746;50.876;4.246;2023-04-24T09:25:04;10.30;99.90
23156;DHT22;11746;50.876;4.246;2023-04-24T09:27:31;10.30;99.90
23156;DHT22;11746;50.876;4.246;2023-04-24T09:29:58;10.30;99.90
23156;DHT22;11746;50.876;4.246;2023-04-24T09:32:24;10.20;99.90
23156;DHT22;11746;50.876;4.246;2023-04-24T09:35:14;10.40;99.90
23156;DHT22;11746;50.876;4.246;2023-04-24T09:42:38;10.70;99.90
23156;DHT22;11746;50.876;4.246;2023-04-24T09:45:12;10.60;99.90
23156;DHT22;11746;50.876;4.246;2023-04-24T09:47:43;10.50;99.90
23156;DHT22;11746;50.876;4.246;2023-04-24T09:50:13;10.50;99.90
23156;DHT22;11746;50.876;4.246;2023-04-24T09:52:46;10.60;99.90
23156;DHT22;11746;50.876;4.246;2023-04-24T09:55:18;10.70;99.90
23156;DHT22;11746;50.876;4.246;2023-04-24T09:58:01;10.80;99.90
23156;DHT22;11746;50.876;4.246;2023-04-24T10:00:32;10.90;99.90
23156;DHT22;11746;50.876;4.246;2023-04-24T10:03:04;10.80;99.90
23156;DHT22;11746;50.876;4.246;2023-04-24T10:05:33;10.60;99.90
23156;DHT22;11746;50.876;4.246;2023-04-24T10:08:09;10.60;99.90
23156;DHT22;11746;50.876;4.246;2023-04-24T10:10:42;10.60;99.90
23156;DHT22;11746;50.876;4.246;2023-04-24T10:13:13;10.50;99.90
23156;DHT22;11746;50.876;4.246;2023-04-24T10:15:41;10.40;99.90
23156;DHT22;11746;50.876;4.246;2023-04-24T10:18:08;10.40;99.90
23156;DHT22;11746;50.876;4.246;2023-04-24T10:20:35;10.40;99.90
23156;DHT22;11746;50.876;4.246;2023-04-24T10:23:01;10.70;99.90
23156;DHT22;11746;50.876;4.246;2023-04-24T10:25:29;10.90;99.90
23156;DHT22;11746;50.876;4.246;2023-04-24T10:27:56;11.00;99.90
23156;DHT22;11746;50.876;4.246;2023-04-24T10:30:28;10.80;99.90
23156;DHT22;11746;50.876;4.246;2023-04-24T10:32:54;10.90;99.90
23156;DHT22;11746;50.876;4.246;2023-04-24T10:35:20;11.10;99.90
23156;DHT22;11746;50.876;4.246;2023-04-24T10:38:05;11.10;99.90
23156;DHT22;11746;50.876;4.246;2023-04-24T10:40:34;11.00;99.90
23156;DHT22;11746;50.876;4.246;2023-04-24T10:43:02;11.10;99.90
23156;DHT22;11746;50.876;4.246;2023-04-24T10:45:31;11.10;99.90
23156;DHT22;11746;50.876;4.246;2023-04-24T10:48:08;11.00;99.90
23156;DHT22;11746;50.876;4.246;2023-04-24T10:50:46;10.90;99.90
23156;DHT22;11746;50.876;4.246;2023-04-24T10:53:17;10.90;99.90
23156;DHT22;11746;50.876;4.246;2023-04-24T10:55:50;10.90;99.90
23156;DHT22;11746;50.876;4.246;2023-04-24T10:58:35;10.90;99.90
23156;DHT22;11746;50.876;4.246;2023-04-24T11:01:01;10.90;99.90
23156;DHT22;11746;50.876;4.246;2023-04-24T11:03:29;10.90;99.90
23156;DHT22;11746;50.876;4.246;2023-04-24T11:08:45;11.00;99.90
23156;DHT22;11746;50.876;4.246;2023-04-24T11:11:15;11.30;99.90
23156;DHT22;11746;50.876;4.246;2023-04-24T11:16:26;11.40;99.90
23156;DHT22;11746;50.876;4.246;2023-04-24T11:21:54;11.30;99.90
23156;DHT22;11746;50.876;4.246;2023-04-24T11:27:05;11.20;99.90
23156;DHT22;11746;50.876;4.246;2023-04-24T11:34:53;11.60;99.90
23156;DHT22;11746;50.876;4.246;2023-04-24T11:37:19;11.60;99.90
23156;DHT22;11746;50.876;4.246;2023-04-24T11:39:50;11.50;99.90
23156;DHT22;11746;50.876;4.246;2023-04-24T11:42:22;11.40;99.90
23156;DHT22;11746;50.876;4.246;2023-04-24T11:44:49;11.30;99.90
23156;DHT22;11746;50.876;4.246;2023-04-24T11:47:15;11.40;99.90
23156;DHT22;11746;50.876;4.246;2023-04-24T11:49:41;11.60;99.90
23156;DHT22;11746;50.876;4.246;2023-04-24T11:52:06;11.80;99.90
23156;DHT22;11746;50.876;4.246;2023-04-24T11:54:32;11.90;99.90
23156;DHT22;11746;50.876;4.246;2023-04-24T11:57:01;11.90;99.90
23156;DHT22;11746;50.876;4.246;2023-04-24T11:59:29;11.70;99.90
23156;DHT22;11746;50.876;4.246;2023-04-24T12:01:54;11.70;99.90
23156;DHT22;11746;50.876;4.246;2023-04-24T12:04:24;11.60;99.90
23156;DHT22;11746;50.876;4.246;2023-04-24T12:09:26;12.00;99.90
23156;DHT22;11746;50.876;4.246;2023-04-24T12:11:56;12.10;99.90
23156;DHT22;11746;50.876;4.246;2023-04-24T12:14:27;12.30;99.90
23156;DHT22;11746;50.876;4.246;2023-04-24T12:16:54;12.50;99.90
23156;DHT22;11746;50.876;4.246;2023-04-24T12:19:23;12.60;99.90
23156;DHT22;11746;50.876;4.246;2023-04-24T12:22:02;12.60;99.90
23156;DHT22;11746;50.876;4.246;2023-04-24T12:24:29;12.30;99.90
23156;DHT22;11746;50.876;4.246;2023-04-24T12:26:56;12.10;99.90
23156;DHT22;11746;50.876;4.246;2023-04-24T12:29:22;12.00;99.90
23156;DHT22;11746;50.876;4.246;2023-04-24T12:31:49;11.80;99.90
23156;DHT22;11746;50.876;4.246;2023-04-24T12:34:22;12.00;99.90
23156;DHT22;11746;50.876;4.246;2023-04-24T12:36:49;12.40;99.90
23156;DHT22;11746;50.876;4.246;2023-04-24T12:39:18;12.50;99.90
23156;DHT22;11746;50.876;4.246;2023-04-24T12:41:59;12.90;99.90
23156;DHT22;11746;50.876;4.246;2023-04-24T12:44:33;13.10;99.90
23156;DHT22;11746;50.876;4.246;2023-04-24T12:47:00;13.20;99.90
23156;DHT22;11746;50.876;4.246;2023-04-24T12:49:27;13.70;99.90
23156;DHT22;11746;50.876;4.246;2023-04-24T12:51:53;13.90;99.90
23156;DHT22;11746;50.876;4.246;2023-04-24T12:54:19;14.00;99.90
23156;DHT22;11746;50.876;4.246;2023-04-24T12:56:44;13.90;99.90
23156;DHT22;11746;50.876;4.246;2023-04-24T12:59:10;13.60;99.90
23156;DHT22;11746;50.876;4.246;2023-04-24T13:01:36;13.40;99.90
23156;DHT22;11746;50.876;4.246;2023-04-24T13:04:02;13.20;99.90
23156;DHT22;11746;50.876;4.246;2023-04-24T13:06:27;12.90;99.90
23156;DHT22;11746;50.876;4.246;2023-04-24T13:08:53;12.80;99.90
23156;DHT22;11746;50.876;4.246;2023-04-24T13:11:23;12.70;99.90
23156;DHT22;11746;50.876;4.246;2023-04-24T13:13:49;12.70;99.90
23156;DHT22;11746;50.876;4.246;2023-04-24T13:16:15;13.00;99.90
23156;DHT22;11746;50.876;4.246;2023-04-24T13:18:40;13.20;99.90
23156;DHT22;11746;50.876;4.246;2023-04-24T13:21:06;13.50;99.90
23156;DHT22;11746;50.876;4.246;2023-04-24T13:23:32;13.10;99.90
23156;DHT22;11746;50.876;4.246;2023-04-24T13:26:00;13.00;99.90
23156;DHT22;11746;50.876;4.246;2023-04-24T13:28:26;12.80;99.90
23156;DHT22;11746;50.876;4.246;2023-04-24T13:30:52;12.50;99.90
23156;DHT22;11746;50.876;4.246;2023-04-24T13:33:18;12.50;99.90
23156;DHT22;11746;50.876;4.246;2023-04-24T13:35:46;12.60;99.90
23156;DHT22;11746;50.876;4.246;2023-04-24T13:38:11;12.50;99.90
23156;DHT22;11746;50.876;4.246;2023-04-24T13:40:37;12.50;99.90
23156;DHT22;11746;50.876;4.246;2023-04-24T13:43:03;12.40;99.90
23156;DHT22;11746;50.876;4.246;2023-04-24T13:45:31;12.50;99.90
23156;DHT22;11746;50.876;4.246;2023-04-24T13:47:58;12.50;99.90
23156;DHT22;11746;50.876;4.246;2023-04-24T13:50:24;12.60;99.90
23156;DHT22;11746;50.876;4.246;2023-04-24T13:52:50;12.70;99.90
23156;DHT22;11746;50.876;4.246;2023-04-24T13:55:16;12.80;99.90
23156;DHT22;11746;50.876;4.246;2023-04-24T13:57:42;12.70;99.90
23156;DHT22;11746;50.876;4.246;2023-04-24T14:00:08;12.70;99.90
23156;DHT22;11746;50.876;4.246;2023-04-24T14:02:38;12.70;99.90
23156;DHT22;11746;50.876;4.246;2023-04-24T14:05:08;13.10;99.90
23156;DHT22;11746;50.876;4.246;2023-04-24T14:07:36;13.40;99.90
23156;DHT22;11746;50.876;4.246;2023-04-24T14:10:01;13.20;99.90
23156;DHT22;11746;50.876;4.246;2023-04-24T14:12:27;13.10;99.90
23156;DHT22;11746;50.876;4.246;2023-04-24T14:14:54;12.90;99.90
23156;DHT22;11746;50.876;4.246;2023-04-24T14:17:20;13.00;99.90
23156;DHT22;11746;50.876;4.246;2023-04-24T14:19:45;13.10;99.90
23156;DHT22;11746;50.876;4.246;2023-04-24T14:22:14;13.00;99.90
23156;DHT22;11746;50.876;4.246;2023-04-24T14:24:41;12.90;99.90
23156;DHT22;11746;50.876;4.246;2023-04-24T14:27:09;12.70;99.90
23156;DHT22;11746;50.876;4.246;2023-04-24T14:29:35;12.60;99.90
23156;DHT22;11746;50.876;4.246;2023-04-24T14:32:00;12.60;99.90
23156;DHT22;11746;50.876;4.246;2023-04-24T14:34:26;12.30;99.90
23156;DHT22;11746;50.876;4.246;2023-04-24T14:36:55;12.20;99.90
23156;DHT22;11746;50.876;4.246;2023-04-24T14:39:24;12.20;99.90
23156;DHT22;11746;50.876;4.246;2023-04-24T14:41:49;12.30;99.90
23156;DHT22;11746;50.876;4.246;2023-04-24T14:44:15;12.30;99.90
23156;DHT22;11746;50.876;4.246;2023-04-24T14:46:43;12.30;99.90
23156;DHT22;11746;50.876;4.246;2023-04-24T14:49:11;12.30;99.90
23156;DHT22;11746;50.876;4.246;2023-04-24T14:51:37;12.40;99.90
23156;DHT22;11746;50.876;4.246;2023-04-24T14:54:06;12.50;99.90
23156;DHT22;11746;50.876;4.246;2023-04-24T14:56:36;12.60;99.90
23156;DHT22;11746;50.876;4.246;2023-04-24T14:59:06;12.80;99.90
23156;DHT22;11746;50.876;4.246;2023-04-24T15:01:34;12.80;99.90
23156;DHT22;11746;50.876;4.246;2023-04-24T15:04:00;12.70;99.90
23156;DHT22;11746;50.876;4.246;2023-04-24T15:06:29;12.40;99.90
23156;DHT22;11746;50.876;4.246;2023-04-24T15:08:56;12.30;99.90
23156;DHT22;11746;50.876;4.246;2023-04-24T15:11:22;12.20;99.90
23156;DHT22;11746;50.876;4.246;2023-04-24T15:13:50;12.30;99.90
23156;DHT22;11746;50.876;4.246;2023-04-24T15:16:18;12.20;99.90
23156;DHT22;11746;50.876;4.246;2023-04-24T15:18:46;12.20;99.90
23156;DHT22;11746;50.876;4.246;2023-04-24T15:21:14;12.20;99.90
23156;DHT22;11746;50.876;4.246;2023-04-24T15:23:39;12.30;99.90
23156;DHT22;11746;50.876;4.246;2023-04-24T15:26:05;12.40;99.90
23156;DHT22;11746;50.876;4.246;2023-04-24T15:28:33;12.30;99.90
23156;DHT22;11746;50.876;4.246;2023-04-24T15:31:01;12.20;99.90
23156;DHT22;11746;50.876;4.246;2023-04-24T15:33:26;12.20;99.90
23156;DHT22;11746;50.876;4.246;2023-04-24T15:35:52;12.10;99.90
23156;DHT22;11746;50.876;4.246;2023-04-24T15:38:20;12.10;99.90
23156;DHT22;11746;50.876;4.246;2023-04-24T15:40:45;12.20;99.90
23156;DHT22;11746;50.876;4.246;2023-04-24T15:43:11;12.20;99.90
23156;DHT22;11746;50.876;4.246;2023-04-24T15:45:37;12.00;99.90
23156;DHT22;11746;50.876;4.246;2023-04-24T15:48:05;12.00;99.90
23156;DHT22;11746;50.876;4.246;2023-04-24T15:50:33;12.00;99.90
23156;DHT22;11746;50.876;4.246;2023-04-24T15:53:01;12.00;99.90
23156;DHT22;11746;50.876;4.246;2023-04-24T15:55:27;11.80;99.90
23156;DHT22;11746;50.876;4.246;2023-04-24T15:57:53;11.80;99.90
23156;DHT22;11746;50.876;4.246;2023-04-24T16:00:21;11.80;99.90
23156;DHT22;11746;50.876;4.246;2023-04-24T16:02:47;11.90;99.90